createdAt,value
2022-10-08T00:00:01.915Z,14.22
2022-10-08T00:00:33.587Z,14.22
2022-10-08T00:01:05.508Z,14.22
2022-10-08T00:01:34.632Z,14.22
2022-10-08T00:01:53.667Z,14.22
2022-10-08T00:02:25.541Z,14.22
2022-10-08T00:02:42.564Z,14.22
2022-10-08T00:03:13.541Z,14.22
2022-10-08T00:03:34.975Z,14.22
2022-10-08T00:04:01.802Z,14.22
2022-10-08T00:04:33.547Z,14.22
2022-10-08T00:05:06.804Z,14.22
2022-10-08T00:05:34.595Z,14.22
2022-10-08T00:05:53.547Z,14.22
2022-10-08T00:06:25.543Z,14.22
2022-10-08T00:06:42.636Z,14.22
2022-10-08T00:07:13.521Z,14.22
2022-10-08T00:07:34.586Z,14.27
2022-10-08T00:08:01.738Z,14.27
2022-10-08T00:08:33.547Z,14.27
2022-10-08T00:09:05.627Z,14.27
2022-10-08T00:09:34.631Z,14.27
2022-10-08T00:09:53.539Z,14.27
2022-10-08T00:10:25.550Z,14.27
2022-10-08T00:10:42.615Z,14.27
2022-10-08T00:11:13.678Z,14.38
2022-10-08T00:11:34.998Z,14.38
2022-10-08T00:12:01.893Z,14.38
2022-10-08T00:12:33.623Z,14.38
2022-10-08T00:13:13.917Z,14.38
2022-10-08T00:13:34.576Z,14.38
2022-10-08T00:13:53.563Z,14.38
2022-10-08T00:14:25.547Z,14.38
2022-10-08T00:14:42.632Z,14.38
2022-10-08T00:15:14.509Z,14.38
2022-10-08T00:15:34.614Z,14.38
2022-10-08T00:16:01.837Z,14.38
2022-10-08T00:16:33.565Z,14.38
2022-10-08T00:17:05.580Z,14.38
2022-10-08T00:17:34.591Z,14.38
2022-10-08T00:17:53.604Z,14.38
2022-10-08T00:18:25.527Z,14.38
2022-10-08T00:18:42.619Z,14.38
2022-10-08T00:19:13.649Z,14.38
2022-10-08T00:19:34.593Z,14.38
2022-10-08T00:20:01.783Z,14.38
2022-10-08T00:20:33.491Z,14.38
2022-10-08T00:21:05.507Z,14.38
2022-10-08T00:21:35.132Z,14.50
2022-10-08T00:21:53.439Z,14.50
2022-10-08T00:22:25.677Z,14.50
2022-10-08T00:22:42.610Z,14.50
2022-10-08T00:23:13.495Z,14.50
2022-10-08T00:23:34.575Z,14.50
2022-10-08T00:24:01.790Z,14.61
2022-10-08T00:24:33.491Z,14.61
2022-10-08T00:25:05.585Z,14.61
2022-10-08T00:25:34.572Z,14.61
2022-10-08T00:25:53.475Z,14.61
2022-10-08T00:26:25.511Z,14.61
2022-10-08T00:26:44.008Z,14.61
2022-10-08T00:27:13.910Z,14.50
2022-10-08T00:27:34.667Z,14.50
2022-10-08T00:28:01.770Z,14.50
2022-10-08T00:28:33.487Z,14.50
2022-10-08T00:29:05.503Z,14.50
2022-10-08T00:29:34.550Z,14.50
2022-10-08T00:29:53.460Z,14.50
2022-10-08T00:30:26.168Z,14.38
2022-10-08T00:30:42.551Z,14.38
2022-10-08T00:31:13.387Z,14.38
2022-10-08T00:31:34.469Z,14.38
2022-10-08T00:32:01.906Z,14.38
2022-10-08T00:32:33.487Z,14.38
2022-10-08T00:33:05.487Z,14.27
2022-10-08T00:33:34.997Z,14.27
2022-10-08T00:33:53.553Z,14.27
2022-10-08T00:34:25.439Z,14.27
2022-10-08T00:34:42.589Z,14.27
2022-10-08T00:35:13.543Z,14.27
2022-10-08T00:35:34.714Z,14.27
2022-10-08T00:36:01.783Z,14.22
2022-10-08T00:36:33.474Z,14.22
2022-10-08T00:37:05.487Z,14.22
2022-10-08T00:37:35.218Z,14.11
2022-10-08T00:37:53.456Z,14.11
2022-10-08T00:38:25.460Z,14.11
2022-10-08T00:38:42.597Z,14.11
2022-10-08T00:39:13.596Z,14.11
2022-10-08T00:39:34.596Z,14.11
2022-10-08T00:40:01.678Z,14.00
2022-10-08T00:40:34.050Z,14.00
2022-10-08T00:41:05.423Z,14.00
2022-10-08T00:41:34.575Z,14.00
2022-10-08T00:41:53.478Z,14.00
2022-10-08T00:42:25.476Z,14.00
2022-10-08T00:42:42.534Z,14.00
2022-10-08T00:43:13.312Z,14.00
2022-10-08T00:43:34.418Z,14.00
2022-10-08T00:44:01.669Z,14.00
2022-10-08T00:44:33.488Z,14.00
2022-10-08T00:45:05.566Z,14.00
2022-10-08T00:45:35.590Z,14.00
2022-10-08T00:45:53.539Z,14.00
2022-10-08T00:46:25.541Z,13.88
2022-10-08T00:46:42.538Z,13.88
2022-10-08T00:47:13.321Z,13.88
2022-10-08T00:47:34.437Z,13.88
2022-10-08T00:48:01.672Z,13.88
2022-10-08T00:48:33.453Z,13.88
2022-10-08T00:49:05.491Z,13.88
2022-10-08T00:49:35.257Z,13.88
2022-10-08T00:49:53.431Z,13.88
2022-10-08T00:50:25.469Z,13.88
2022-10-08T00:50:58.083Z,13.88
2022-10-08T00:51:29.797Z,13.88
2022-10-08T00:52:01.741Z,13.77
2022-10-08T00:52:33.508Z,13.77
2022-10-08T00:53:05.444Z,13.77
2022-10-08T00:53:34.658Z,13.77
2022-10-08T00:53:53.484Z,13.77
2022-10-08T00:54:25.442Z,13.77
2022-10-08T00:54:42.664Z,13.77
2022-10-08T00:55:13.608Z,13.77
2022-10-08T00:55:34.618Z,13.77
2022-10-08T00:56:02.304Z,13.77
2022-10-08T00:56:33.570Z,13.77
2022-10-08T00:57:05.502Z,13.77
2022-10-08T00:57:35.317Z,13.77
2022-10-08T00:57:53.633Z,13.77
2022-10-08T00:58:26.173Z,13.77
2022-10-08T00:58:42.607Z,13.77
2022-10-08T00:59:13.471Z,13.77
2022-10-08T00:59:34.789Z,13.77
2022-10-08T01:00:01.878Z,13.77
2022-10-08T01:00:33.577Z,13.77
2022-10-08T01:01:06.161Z,13.77
2022-10-08T01:01:34.616Z,13.77
2022-10-08T01:01:54.904Z,13.77
2022-10-08T01:02:25.443Z,13.77
2022-10-08T01:02:57.430Z,13.77
2022-10-08T01:03:29.575Z,13.77
2022-10-08T01:04:01.764Z,13.77
2022-10-08T01:04:33.523Z,13.77
2022-10-08T01:05:05.447Z,13.77
2022-10-08T01:05:35.050Z,13.77
2022-10-08T01:05:53.357Z,13.77
2022-10-08T01:06:25.265Z,13.77
2022-10-08T01:06:57.326Z,13.77
2022-10-08T01:07:29.758Z,13.77
2022-10-08T01:08:01.704Z,13.88
2022-10-08T01:08:33.500Z,13.88
2022-10-08T01:09:05.673Z,13.88
2022-10-08T01:09:34.565Z,13.88
2022-10-08T01:09:53.582Z,13.77
2022-10-08T01:10:25.550Z,13.77
2022-10-08T01:10:57.381Z,13.77
2022-10-08T01:11:29.748Z,13.77
2022-10-08T01:12:01.742Z,13.77
2022-10-08T01:12:33.638Z,13.77
2022-10-08T01:13:10.871Z,13.72
2022-10-08T01:13:34.444Z,13.72
2022-10-08T01:13:53.229Z,13.72
2022-10-08T01:14:25.479Z,13.72
2022-10-08T01:14:42.552Z,13.72
2022-10-08T01:15:13.487Z,13.72
2022-10-08T01:15:34.588Z,13.72
2022-10-08T01:16:02.075Z,13.72
2022-10-08T01:16:33.510Z,13.72
2022-10-08T01:17:05.402Z,13.72
2022-10-08T01:17:34.544Z,13.72
2022-10-08T01:17:53.532Z,13.61
2022-10-08T01:18:25.423Z,13.61
2022-10-08T01:18:42.537Z,13.61
2022-10-08T01:19:13.382Z,13.61
2022-10-08T01:19:34.896Z,13.61
2022-10-08T01:20:01.590Z,13.61
2022-10-08T01:20:34.855Z,13.61
2022-10-08T01:21:05.457Z,13.61
2022-10-08T01:21:34.578Z,13.61
2022-10-08T01:21:53.394Z,13.61
2022-10-08T01:22:25.434Z,13.61
2022-10-08T01:22:42.501Z,13.61
2022-10-08T01:23:13.301Z,13.61
2022-10-08T01:23:34.588Z,13.61
2022-10-08T01:24:01.638Z,13.61
2022-10-08T01:24:33.484Z,13.61
2022-10-08T01:25:05.473Z,13.61
2022-10-08T01:25:35.320Z,13.61
2022-10-08T01:25:53.404Z,13.61
2022-10-08T01:26:26.043Z,13.61
2022-10-08T01:26:42.525Z,13.61
2022-10-08T01:27:13.778Z,13.61
2022-10-08T01:27:34.565Z,13.61
2022-10-08T01:28:01.756Z,13.61
2022-10-08T01:28:33.593Z,13.61
2022-10-08T01:29:05.451Z,13.61
2022-10-08T01:29:34.478Z,13.61
2022-10-08T01:29:53.530Z,13.61
2022-10-08T01:30:42.641Z,13.61
2022-10-08T01:31:13.593Z,13.61
2022-10-08T01:31:35.023Z,13.61
2022-10-08T01:32:01.825Z,13.61
2022-10-08T01:32:33.359Z,13.61
2022-10-08T01:33:05.723Z,13.61
2022-10-08T01:33:34.575Z,13.61
2022-10-08T01:33:53.422Z,13.61
2022-10-08T01:34:25.383Z,13.61
2022-10-08T01:34:42.512Z,13.61
2022-10-08T01:35:13.792Z,13.61
2022-10-08T01:35:34.675Z,13.61
2022-10-08T01:36:01.761Z,13.61
2022-10-08T01:36:34.257Z,13.61
2022-10-08T01:37:05.415Z,13.61
2022-10-08T01:37:34.745Z,13.61
2022-10-08T01:37:53.421Z,13.61
2022-10-08T01:38:25.348Z,13.61
2022-10-08T01:38:42.482Z,13.61
2022-10-08T01:39:13.554Z,13.61
2022-10-08T01:39:34.559Z,13.61
2022-10-08T01:40:01.435Z,13.61
2022-10-08T01:40:33.662Z,13.61
2022-10-08T01:41:05.406Z,13.61
2022-10-08T01:41:36.368Z,13.61
2022-10-08T01:42:10.377Z,13.61
2022-10-08T01:42:34.743Z,13.61
2022-10-08T01:42:57.542Z,13.61
2022-10-08T01:43:29.623Z,13.61
2022-10-08T01:44:01.738Z,13.50
2022-10-08T01:44:33.452Z,13.50
2022-10-08T01:45:05.567Z,13.50
2022-10-08T01:45:35.102Z,13.50
2022-10-08T01:45:53.679Z,13.50
2022-10-08T01:46:25.444Z,13.50
2022-10-08T01:46:43.134Z,13.50
2022-10-08T01:47:13.574Z,13.50
2022-10-08T01:47:34.759Z,13.50
2022-10-08T01:48:01.660Z,13.50
2022-10-08T01:48:33.474Z,13.50
2022-10-08T01:49:05.423Z,13.50
2022-10-08T01:49:34.886Z,13.50
2022-10-08T01:49:53.427Z,13.50
2022-10-08T01:50:25.481Z,13.50
2022-10-08T01:50:42.545Z,13.50
2022-10-08T01:51:13.427Z,13.50
2022-10-08T01:51:35.028Z,13.50
2022-10-08T01:52:01.655Z,13.50
2022-10-08T01:52:33.486Z,13.50
2022-10-08T01:53:05.419Z,13.50
2022-10-08T01:53:34.583Z,13.38
2022-10-08T01:53:53.391Z,13.38
2022-10-08T01:54:25.421Z,13.38
2022-10-08T01:54:42.621Z,13.38
2022-10-08T01:55:13.424Z,13.38
2022-10-08T01:55:34.569Z,13.38
2022-10-08T01:56:01.602Z,13.50
2022-10-08T01:56:33.402Z,13.50
2022-10-08T01:57:06.147Z,13.50
2022-10-08T01:57:34.573Z,13.50
2022-10-08T01:57:53.377Z,13.50
2022-10-08T01:58:25.402Z,13.50
2022-10-08T01:58:42.560Z,13.50
2022-10-08T01:59:13.403Z,13.50
2022-10-08T01:59:34.607Z,13.50
2022-10-08T02:00:02.102Z,13.38
2022-10-08T02:00:33.382Z,13.38
2022-10-08T02:01:05.555Z,13.38
2022-10-08T02:01:34.614Z,13.38
2022-10-08T02:01:53.449Z,13.50
2022-10-08T02:02:25.500Z,13.38
2022-10-08T02:02:42.487Z,13.50
2022-10-08T02:03:13.426Z,13.50
2022-10-08T02:03:35.118Z,13.50
2022-10-08T02:04:01.601Z,13.50
2022-10-08T02:04:33.415Z,13.50
2022-10-08T02:05:05.426Z,13.50
2022-10-08T02:05:34.569Z,13.50
2022-10-08T02:05:53.422Z,13.50
2022-10-08T02:06:25.396Z,13.38
2022-10-08T02:06:42.425Z,13.38
2022-10-08T02:07:13.431Z,13.38
2022-10-08T02:07:34.606Z,13.38
2022-10-08T02:08:01.723Z,13.38
2022-10-08T02:08:33.422Z,13.38
2022-10-08T02:09:06.124Z,13.38
2022-10-08T02:09:34.595Z,13.38
2022-10-08T02:09:53.427Z,13.38
2022-10-08T02:10:25.367Z,13.38
2022-10-08T02:10:42.600Z,13.38
2022-10-08T02:11:13.422Z,13.38
2022-10-08T02:11:34.705Z,13.38
2022-10-08T02:12:01.828Z,13.38
2022-10-08T02:12:33.449Z,13.38
2022-10-08T02:13:05.789Z,13.38
2022-10-08T02:13:35.079Z,13.38
2022-10-08T02:13:53.603Z,13.38
2022-10-08T02:14:25.479Z,13.38
2022-10-08T02:14:42.621Z,13.38
2022-10-08T02:15:13.411Z,13.38
2022-10-08T02:15:34.583Z,13.38
2022-10-08T02:16:02.186Z,13.38
2022-10-08T02:16:33.583Z,13.38
2022-10-08T02:17:05.395Z,13.38
2022-10-08T02:17:34.571Z,13.38
2022-10-08T02:17:53.411Z,13.38
2022-10-08T02:18:25.523Z,13.38
2022-10-08T02:18:42.615Z,13.38
2022-10-08T02:19:14.135Z,13.38
2022-10-08T02:19:37.159Z,13.38
2022-10-08T02:20:01.742Z,13.38
2022-10-08T02:20:33.384Z,13.38
2022-10-08T02:21:05.472Z,13.38
2022-10-08T02:21:34.890Z,13.38
2022-10-08T02:21:53.395Z,13.38
2022-10-08T02:22:25.407Z,13.38
2022-10-08T02:22:42.531Z,13.38
2022-10-08T02:23:13.558Z,13.38
2022-10-08T02:23:34.736Z,13.38
2022-10-08T02:24:01.854Z,13.38
2022-10-08T02:24:33.412Z,13.38
2022-10-08T02:25:05.423Z,13.38
2022-10-08T02:25:34.574Z,13.38
2022-10-08T02:25:53.554Z,13.38
2022-10-08T02:26:25.335Z,13.38
2022-10-08T02:26:57.408Z,13.38
2022-10-08T02:27:29.616Z,13.38
2022-10-08T02:28:02.000Z,13.38
2022-10-08T02:28:33.592Z,13.38
2022-10-08T02:29:05.528Z,13.38
2022-10-08T02:29:34.684Z,13.38
2022-10-08T02:29:53.388Z,13.38
2022-10-08T02:30:25.439Z,13.38
2022-10-08T02:30:42.589Z,13.38
2022-10-08T02:31:13.398Z,13.38
2022-10-08T02:31:37.230Z,13.38
2022-10-08T02:32:01.682Z,13.38
2022-10-08T02:32:33.742Z,13.38
2022-10-08T02:33:05.679Z,13.38
2022-10-08T02:33:34.729Z,13.38
2022-10-08T02:33:53.388Z,13.38
2022-10-08T02:34:25.969Z,13.38
2022-10-08T02:34:42.501Z,13.38
2022-10-08T02:35:13.652Z,13.38
2022-10-08T02:35:34.580Z,13.38
2022-10-08T02:36:01.533Z,13.38
2022-10-08T02:36:33.350Z,13.27
2022-10-08T02:37:05.493Z,13.27
2022-10-08T02:37:34.546Z,13.27
2022-10-08T02:37:53.435Z,13.27
2022-10-08T02:38:25.295Z,13.27
2022-10-08T02:38:42.599Z,13.27
2022-10-08T02:39:13.459Z,13.27
2022-10-08T02:39:34.567Z,13.27
2022-10-08T02:40:01.617Z,13.27
2022-10-08T02:40:33.362Z,13.27
2022-10-08T02:41:05.418Z,13.27
2022-10-08T02:41:34.588Z,13.27
2022-10-08T02:41:53.428Z,13.27
2022-10-08T02:42:25.356Z,13.27
2022-10-08T02:42:42.484Z,13.27
2022-10-08T02:43:13.257Z,13.27
2022-10-08T02:43:34.434Z,13.22
2022-10-08T02:44:05.366Z,13.22
2022-10-08T02:44:34.080Z,13.22
2022-10-08T02:45:05.453Z,13.22
2022-10-08T02:45:34.611Z,13.22
2022-10-08T02:45:53.610Z,13.22
2022-10-08T02:46:25.356Z,13.22
2022-10-08T02:46:42.464Z,13.22
2022-10-08T02:47:13.377Z,13.22
2022-10-08T02:47:34.741Z,13.22
2022-10-08T02:48:01.685Z,13.22
2022-10-08T02:48:33.400Z,13.22
2022-10-08T02:49:05.405Z,13.22
2022-10-08T02:49:35.305Z,13.22
2022-10-08T02:49:53.354Z,13.22
2022-10-08T02:50:25.378Z,13.22
2022-10-08T02:50:42.458Z,13.22
2022-10-08T02:51:13.353Z,13.22
2022-10-08T02:51:34.689Z,13.22
2022-10-08T02:52:01.577Z,13.22
2022-10-08T02:52:33.398Z,13.22
2022-10-08T02:53:05.354Z,13.22
2022-10-08T02:53:34.723Z,13.22
2022-10-08T02:53:53.377Z,13.22
2022-10-08T02:54:25.369Z,13.22
2022-10-08T02:54:57.966Z,13.22
2022-10-08T02:55:29.562Z,13.11
2022-10-08T02:56:01.689Z,13.11
2022-10-08T02:56:33.421Z,13.11
2022-10-08T02:57:09.362Z,13.11
2022-10-08T02:57:35.332Z,13.11
2022-10-08T02:57:53.354Z,13.11
2022-10-08T02:58:25.340Z,13.11
2022-10-08T02:58:42.434Z,13.11
2022-10-08T02:59:13.470Z,13.11
2022-10-08T02:59:36.111Z,13.11
2022-10-08T03:00:04.530Z,13.11
2022-10-08T03:00:33.395Z,13.11
2022-10-08T03:01:05.443Z,13.11
2022-10-08T03:01:34.753Z,13.11
2022-10-08T03:01:53.460Z,13.11
2022-10-08T03:02:25.408Z,13.11
2022-10-08T03:02:42.565Z,13.11
2022-10-08T03:03:13.401Z,13.11
2022-10-08T03:03:35.005Z,13.11
2022-10-08T03:04:01.778Z,13.11
2022-10-08T03:04:33.467Z,13.11
2022-10-08T03:05:05.390Z,13.11
2022-10-08T03:05:34.622Z,13.00
2022-10-08T03:05:53.345Z,13.00
2022-10-08T03:06:25.354Z,13.00
2022-10-08T03:06:42.440Z,13.00
2022-10-08T03:07:13.399Z,13.00
2022-10-08T03:07:34.594Z,13.00
2022-10-08T03:08:01.552Z,13.00
2022-10-08T03:08:33.474Z,13.00
2022-10-08T03:09:06.168Z,13.00
2022-10-08T03:09:34.924Z,13.00
2022-10-08T03:09:53.473Z,13.00
2022-10-08T03:10:25.302Z,13.00
2022-10-08T03:10:42.456Z,13.00
2022-10-08T03:11:13.469Z,13.00
2022-10-08T03:11:34.698Z,13.00
2022-10-08T03:12:01.606Z,13.00
2022-10-08T03:12:33.469Z,13.00
2022-10-08T03:13:05.877Z,13.00
2022-10-08T03:13:34.683Z,13.00
2022-10-08T03:13:53.597Z,13.00
2022-10-08T03:14:25.168Z,13.00
2022-10-08T03:14:42.380Z,12.88
2022-10-08T03:15:13.323Z,12.88
2022-10-08T03:15:34.593Z,13.00
2022-10-08T03:16:01.574Z,12.88
2022-10-08T03:16:33.435Z,12.88
2022-10-08T03:17:05.410Z,12.88
2022-10-08T03:17:34.780Z,12.88
2022-10-08T03:17:53.351Z,12.88
2022-10-08T03:18:25.336Z,12.88
2022-10-08T03:18:42.482Z,12.88
2022-10-08T03:19:14.011Z,12.88
2022-10-08T03:19:34.573Z,12.88
2022-10-08T03:20:01.597Z,12.88
2022-10-08T03:20:33.414Z,12.88
2022-10-08T03:21:05.379Z,12.88
2022-10-08T03:21:34.618Z,12.88
2022-10-08T03:21:53.222Z,12.88
2022-10-08T03:22:25.248Z,12.88
2022-10-08T03:22:42.446Z,12.88
2022-10-08T03:23:13.404Z,12.88
2022-10-08T03:23:34.621Z,12.88
2022-10-08T03:24:01.663Z,12.88
2022-10-08T03:24:33.461Z,12.88
2022-10-08T03:25:05.528Z,12.88
2022-10-08T03:25:34.591Z,12.88
2022-10-08T03:25:53.349Z,12.88
2022-10-08T03:26:25.452Z,12.88
2022-10-08T03:26:42.411Z,12.88
2022-10-08T03:27:13.702Z,13.00
2022-10-08T03:27:35.199Z,13.00
2022-10-08T03:28:01.667Z,13.00
2022-10-08T03:28:33.499Z,13.00
2022-10-08T03:29:05.415Z,13.00
2022-10-08T03:29:35.632Z,13.00
2022-10-08T03:29:53.324Z,13.00
2022-10-08T03:30:25.456Z,13.00
2022-10-08T03:30:42.522Z,13.00
2022-10-08T03:31:13.487Z,13.00
2022-10-08T03:31:34.572Z,13.00
2022-10-08T03:32:01.539Z,13.00
2022-10-08T03:32:34.168Z,13.11
2022-10-08T03:33:05.581Z,13.11
2022-10-08T03:33:34.573Z,13.11
2022-10-08T03:33:53.758Z,13.11
2022-10-08T03:34:25.380Z,13.11
2022-10-08T03:34:43.215Z,13.11
2022-10-08T03:35:13.407Z,13.00
2022-10-08T03:35:35.111Z,13.00
2022-10-08T03:36:01.642Z,13.00
2022-10-08T03:36:33.444Z,13.00
2022-10-08T03:37:05.426Z,12.88
2022-10-08T03:37:35.025Z,12.88
2022-10-08T03:37:53.412Z,12.88
2022-10-08T03:38:25.401Z,12.88
2022-10-08T03:38:42.412Z,12.88
2022-10-08T03:39:13.473Z,13.00
2022-10-08T03:39:34.724Z,13.00
2022-10-08T03:40:01.623Z,13.00
2022-10-08T03:40:33.393Z,13.00
2022-10-08T03:41:05.362Z,13.00
2022-10-08T03:41:34.730Z,13.00
2022-10-08T03:41:53.382Z,13.00
2022-10-08T03:42:25.503Z,13.00
2022-10-08T03:42:42.725Z,13.00
2022-10-08T03:43:13.400Z,13.00
2022-10-08T03:43:34.650Z,13.00
2022-10-08T03:44:01.540Z,13.00
2022-10-08T03:44:33.410Z,13.00
2022-10-08T03:45:06.331Z,13.00
2022-10-08T03:45:34.810Z,13.00
2022-10-08T03:45:53.559Z,13.00
2022-10-08T03:46:25.368Z,13.00
2022-10-08T03:46:42.433Z,13.00
2022-10-08T03:47:13.475Z,13.00
2022-10-08T03:47:34.830Z,13.00
2022-10-08T03:48:01.598Z,13.00
2022-10-08T03:48:33.382Z,13.00
2022-10-08T03:49:05.326Z,12.88
2022-10-08T03:49:34.729Z,12.88
2022-10-08T03:49:53.810Z,12.88
2022-10-08T03:50:25.306Z,12.88
2022-10-08T03:50:42.456Z,12.88
2022-10-08T03:51:13.406Z,12.88
2022-10-08T03:51:34.701Z,12.88
2022-10-08T03:52:01.793Z,12.88
2022-10-08T03:52:33.484Z,12.88
2022-10-08T03:53:05.371Z,12.88
2022-10-08T03:53:34.639Z,12.88
2022-10-08T03:53:53.759Z,12.88
2022-10-08T03:54:25.501Z,12.88
2022-10-08T03:54:42.501Z,13.00
2022-10-08T03:55:13.928Z,13.00
2022-10-08T03:55:34.622Z,13.00
2022-10-08T03:56:01.600Z,13.00
2022-10-08T03:56:33.349Z,12.88
2022-10-08T03:57:05.396Z,12.88
2022-10-08T03:57:35.144Z,12.88
2022-10-08T03:57:53.560Z,12.88
2022-10-08T03:58:25.386Z,12.88
2022-10-08T03:58:42.426Z,12.88
2022-10-08T03:59:13.301Z,12.77
2022-10-08T03:59:34.593Z,12.77
2022-10-08T04:00:01.736Z,12.77
2022-10-08T04:00:33.410Z,12.77
2022-10-08T04:01:05.390Z,12.88
2022-10-08T04:01:34.685Z,12.88
2022-10-08T04:01:53.395Z,13.00
2022-10-08T04:02:25.330Z,13.00
2022-10-08T04:02:42.495Z,13.00
2022-10-08T04:03:13.415Z,13.00
2022-10-08T04:03:34.618Z,13.00
2022-10-08T04:04:01.563Z,13.00
2022-10-08T04:04:33.367Z,13.00
2022-10-08T04:05:05.487Z,13.00
2022-10-08T04:05:34.818Z,13.00
2022-10-08T04:05:53.818Z,13.00
2022-10-08T04:06:25.340Z,12.88
2022-10-08T04:06:42.445Z,12.88
2022-10-08T04:07:13.316Z,12.88
2022-10-08T04:07:34.561Z,12.88
2022-10-08T04:08:01.612Z,12.77
2022-10-08T04:08:33.419Z,12.72
2022-10-08T04:09:05.340Z,12.72
2022-10-08T04:09:34.572Z,12.72
2022-10-08T04:09:53.337Z,12.72
2022-10-08T04:10:25.921Z,12.72
2022-10-08T04:10:42.404Z,12.61
2022-10-08T04:11:13.340Z,12.61
2022-10-08T04:11:34.647Z,12.61
2022-10-08T04:12:01.545Z,12.61
2022-10-08T04:12:33.404Z,12.50
2022-10-08T04:13:05.688Z,12.50
2022-10-08T04:13:34.598Z,12.50
2022-10-08T04:13:56.641Z,12.38
2022-10-08T04:14:25.342Z,12.38
2022-10-08T04:14:42.548Z,12.38
2022-10-08T04:15:13.405Z,12.38
2022-10-08T04:15:34.641Z,12.38
2022-10-08T04:16:01.699Z,12.38
2022-10-08T04:16:33.484Z,12.38
2022-10-08T04:17:05.369Z,12.38
2022-10-08T04:17:34.592Z,12.38
2022-10-08T04:17:53.361Z,12.27
2022-10-08T04:18:25.295Z,12.27
2022-10-08T04:18:42.381Z,12.27
2022-10-08T04:19:13.403Z,12.27
2022-10-08T04:19:34.608Z,12.27
2022-10-08T04:20:01.642Z,12.27
2022-10-08T04:20:33.917Z,12.22
2022-10-08T04:21:05.318Z,12.22
2022-10-08T04:21:34.589Z,12.22
2022-10-08T04:21:53.305Z,12.22
2022-10-08T04:22:25.324Z,12.22
2022-10-08T04:22:42.596Z,12.22
2022-10-08T04:23:13.317Z,12.11
2022-10-08T04:23:34.601Z,12.11
2022-10-08T04:24:01.643Z,12.11
2022-10-08T04:24:33.709Z,12.11
2022-10-08T04:25:05.411Z,12.11
2022-10-08T04:25:35.354Z,12.11
2022-10-08T04:25:53.436Z,12.11
2022-10-08T04:26:25.333Z,12.11
2022-10-08T04:26:42.481Z,12.11
2022-10-08T04:27:13.473Z,12.11
2022-10-08T04:27:34.611Z,12.11
2022-10-08T04:28:01.633Z,12.11
2022-10-08T04:28:38.217Z,12.11
2022-10-08T04:29:05.303Z,12.22
2022-10-08T04:29:34.600Z,12.22
2022-10-08T04:29:53.355Z,12.22
2022-10-08T04:30:25.423Z,12.22
2022-10-08T04:30:43.015Z,12.22
2022-10-08T04:31:13.689Z,12.22
2022-10-08T04:31:34.654Z,12.22
2022-10-08T04:32:01.608Z,12.22
2022-10-08T04:32:33.371Z,12.22
2022-10-08T04:33:05.538Z,12.22
2022-10-08T04:33:34.611Z,12.22
2022-10-08T04:33:53.357Z,12.22
2022-10-08T04:34:25.344Z,12.22
2022-10-08T04:34:42.432Z,12.22
2022-10-08T04:35:34.790Z,12.22
2022-10-08T04:36:01.591Z,12.22
2022-10-08T04:36:33.367Z,12.22
2022-10-08T04:37:05.356Z,12.22
2022-10-08T04:37:35.186Z,12.22
2022-10-08T04:37:53.459Z,12.22
2022-10-08T04:38:25.174Z,12.22
2022-10-08T04:38:42.446Z,12.22
2022-10-08T04:39:13.467Z,12.22
2022-10-08T04:39:34.593Z,12.22
2022-10-08T04:40:01.622Z,12.11
2022-10-08T04:40:33.490Z,12.11
2022-10-08T04:41:06.067Z,12.11
2022-10-08T04:41:34.585Z,12.11
2022-10-08T04:41:53.317Z,12.00
2022-10-08T04:42:25.304Z,12.00
2022-10-08T04:42:42.419Z,12.00
2022-10-08T04:43:13.224Z,12.00
2022-10-08T04:43:34.449Z,12.00
2022-10-08T04:44:01.561Z,12.00
2022-10-08T04:44:33.361Z,12.11
2022-10-08T04:45:05.472Z,12.11
2022-10-08T04:45:34.620Z,12.11
2022-10-08T04:45:53.496Z,12.11
2022-10-08T04:46:25.302Z,12.11
2022-10-08T04:46:42.468Z,12.00
2022-10-08T04:47:13.364Z,12.00
2022-10-08T04:47:34.633Z,12.00
2022-10-08T04:48:01.636Z,12.00
2022-10-08T04:48:33.334Z,12.00
2022-10-08T04:49:05.381Z,12.00
2022-10-08T04:49:34.615Z,12.00
2022-10-08T04:49:53.352Z,12.00
2022-10-08T04:50:25.293Z,12.00
2022-10-08T04:50:42.365Z,12.00
2022-10-08T04:51:13.915Z,12.00
2022-10-08T04:51:34.585Z,12.00
2022-10-08T04:52:01.631Z,12.00
2022-10-08T04:52:33.194Z,12.00
2022-10-08T04:53:05.323Z,11.77
2022-10-08T04:53:34.616Z,11.77
2022-10-08T04:53:53.334Z,11.77
2022-10-08T04:54:25.290Z,11.77
2022-10-08T04:54:42.458Z,11.77
2022-10-08T04:55:13.301Z,11.77
2022-10-08T04:55:34.606Z,11.88
2022-10-08T04:56:01.513Z,11.88
2022-10-08T04:56:33.399Z,11.88
2022-10-08T04:57:05.299Z,11.88
2022-10-08T04:57:34.554Z,11.88
2022-10-08T04:57:53.366Z,11.88
2022-10-08T04:58:25.402Z,11.88
2022-10-08T04:58:42.437Z,11.77
2022-10-08T04:59:13.326Z,11.77
2022-10-08T04:59:34.619Z,11.72
2022-10-08T05:00:18.209Z,11.72
2022-10-08T05:00:33.392Z,11.72
2022-10-08T05:01:05.277Z,11.72
2022-10-08T05:01:34.673Z,11.72
2022-10-08T05:01:53.436Z,11.72
2022-10-08T05:02:25.265Z,11.72
2022-10-08T05:02:42.562Z,11.72
2022-10-08T05:03:13.441Z,11.61
2022-10-08T05:03:35.020Z,11.61
2022-10-08T05:04:01.775Z,11.61
2022-10-08T05:04:33.429Z,11.61
2022-10-08T05:05:05.328Z,11.61
2022-10-08T05:05:35.173Z,11.61
2022-10-08T05:05:53.395Z,11.61
2022-10-08T05:06:25.784Z,11.61
2022-10-08T05:06:42.274Z,11.61
2022-10-08T05:07:13.365Z,11.61
2022-10-08T05:07:35.217Z,11.61
2022-10-08T05:08:01.573Z,11.61
2022-10-08T05:08:33.396Z,11.61
2022-10-08T05:09:05.251Z,11.61
2022-10-08T05:09:34.623Z,11.61
2022-10-08T05:09:53.073Z,11.61
2022-10-08T05:10:25.273Z,11.61
2022-10-08T05:10:42.504Z,11.61
2022-10-08T05:11:13.389Z,11.50
2022-10-08T05:11:35.437Z,11.50
2022-10-08T05:12:02.412Z,11.50
2022-10-08T05:12:33.434Z,11.50
2022-10-08T05:13:05.497Z,11.50
2022-10-08T05:13:39.301Z,11.50
2022-10-08T05:14:09.268Z,11.50
2022-10-08T05:14:34.634Z,11.50
2022-10-08T05:14:57.285Z,11.38
2022-10-08T05:15:29.323Z,11.38
2022-10-08T05:16:01.605Z,11.38
2022-10-08T05:16:34.035Z,11.38
2022-10-08T05:17:05.266Z,11.38
2022-10-08T05:17:34.621Z,11.38
2022-10-08T05:17:53.352Z,11.50
2022-10-08T05:18:25.252Z,11.50
2022-10-08T05:18:42.587Z,11.50
2022-10-08T05:19:13.343Z,11.50
2022-10-08T05:19:34.653Z,11.50
2022-10-08T05:20:01.931Z,11.50
2022-10-08T05:20:34.440Z,11.50
2022-10-08T05:21:05.345Z,11.61
2022-10-08T05:21:35.399Z,11.61
2022-10-08T05:21:53.191Z,11.72
2022-10-08T05:22:25.248Z,11.77
2022-10-08T05:22:42.420Z,11.77
2022-10-08T05:23:13.389Z,11.77
2022-10-08T05:23:34.615Z,11.77
2022-10-08T05:24:01.418Z,11.72
2022-10-08T05:24:33.385Z,11.72
2022-10-08T05:25:05.345Z,11.72
2022-10-08T05:25:34.663Z,11.61
2022-10-08T05:25:53.391Z,11.61
2022-10-08T05:26:46.237Z,11.61
2022-10-08T05:27:13.860Z,11.61
2022-10-08T05:27:34.595Z,11.61
2022-10-08T05:28:01.646Z,11.61
2022-10-08T05:28:36.225Z,11.61
2022-10-08T05:29:05.299Z,11.61
2022-10-08T05:29:34.623Z,11.61
2022-10-08T05:29:53.396Z,11.61
2022-10-08T05:30:25.356Z,11.61
2022-10-08T05:30:42.503Z,11.61
2022-10-08T05:31:13.455Z,11.61
2022-10-08T05:31:34.996Z,11.61
2022-10-08T05:32:01.572Z,11.50
2022-10-08T05:32:33.427Z,11.50
2022-10-08T05:33:05.277Z,11.50
2022-10-08T05:33:34.662Z,11.61
2022-10-08T05:33:53.374Z,11.50
2022-10-08T05:34:25.275Z,11.61
2022-10-08T05:34:42.480Z,11.61
2022-10-08T05:35:13.331Z,11.61
2022-10-08T05:35:34.618Z,11.61
2022-10-08T05:36:01.708Z,11.61
2022-10-08T05:36:33.410Z,11.61
2022-10-08T05:37:06.082Z,11.61
2022-10-08T05:37:34.610Z,11.61
2022-10-08T05:37:53.455Z,11.72
2022-10-08T05:38:25.300Z,11.72
2022-10-08T05:38:42.440Z,11.72
2022-10-08T05:39:13.704Z,11.72
2022-10-08T05:39:35.375Z,11.72
2022-10-08T05:40:02.093Z,11.72
2022-10-08T05:40:33.593Z,11.72
2022-10-08T05:41:05.473Z,11.72
2022-10-08T05:41:34.803Z,11.61
2022-10-08T05:41:53.475Z,11.61
2022-10-08T05:42:25.288Z,11.61
2022-10-08T05:42:43.301Z,11.61
2022-10-08T05:43:13.546Z,11.61
2022-10-08T05:43:34.769Z,11.61
2022-10-08T05:44:01.791Z,11.61
2022-10-08T05:44:37.380Z,11.61
2022-10-08T05:45:05.611Z,11.61
2022-10-08T05:45:34.747Z,11.61
2022-10-08T05:45:53.522Z,11.61
2022-10-08T05:46:25.428Z,11.61
2022-10-08T05:46:42.670Z,11.61
2022-10-08T05:47:14.126Z,11.61
2022-10-08T05:47:34.795Z,11.61
2022-10-08T05:48:01.929Z,11.61